»·PEaware :: N642SP KLAS-KNYL

N642SP :: KLAS-KNYL

FLIGHT INFORMATION

Flight Status: Arrived
Operator: Privately registered:
United States
More flights under this callsign
Pilot: Wes T. (5776)
Aircraft: CESSNA 172 SKYHAWK
(C172)
More flights by this aircraft type
Origin: KLAS McCarran Intl
United States
Destination: KNYL Yuma MCAS/Yuma Intl
United States
More flights between these airports :: More routes between these airports
Route: LAS V538 GFS V135 BZA
File this flight plan on PilotEdge
Remarks:
Altitude:
(Current/Filed)
9,000ft
Speed:
(Current/Filed)
110kts
Departed: 30-May-15 04:47 PM
Arrived: 30-May-15 07:06 PM
Distance/Time
Traveled:
207nm/2:19
Distance/Time
To Go:
Arrived

Flight Plot

Page will automatically refresh every two minutes.


Map Options




Map Legend


Flown Route
Filed Route
Departure Airport
Arrival Airport
Navaid (VOR, NDB)
Fix

Horizontal Profiles

Position Reports

Time Latitude Longitude Heading Altitude Ground
Speed
30-May-15 16:30 36.099107 -115.159893 295 2184ft 0kts
30-May-15 16:31 36.099107 -115.159894 295 2184ft 0kts
30-May-15 16:32 36.099107 -115.159895 295 2184ft 0kts
30-May-15 16:33 36.099108 -115.159896 295 2184ft 0kts
30-May-15 16:34 36.099108 -115.159897 295 2184ft 0kts
30-May-15 16:35 36.099109 -115.159898 295 2184ft 0kts
30-May-15 16:36 36.099109 -115.159899 295 2184ft 0kts
30-May-15 16:37 36.099109 -115.159899 295 2184ft 0kts
30-May-15 16:38 36.099159 -115.159891 100 2184ft 1kts
30-May-15 16:39 36.099589 -115.157966 31 2184ft 9kts
30-May-15 16:40 36.099796 -115.157293 103 2184ft 0kts
30-May-15 16:41 36.099794 -115.157285 103 2184ft 0kts
30-May-15 16:42 36.099713 -115.157010 114 2184ft 9kts
30-May-15 16:43 36.090478 -115.161452 204 2278ft 80kts
30-May-15 16:44 36.069862 -115.168365 190 3112ft 76kts
30-May-15 16:45 36.047221 -115.172414 187 3764ft 89kts
30-May-15 16:46 36.022316 -115.177028 187 4464ft 90kts
30-May-15 16:47 35.998240 -115.182151 185 5261ft 80kts
30-May-15 16:48 35.978674 -115.177771 159 6124ft 62kts
30-May-15 16:49 35.961742 -115.169548 160 6722ft 73kts
30-May-15 16:50 35.939960 -115.162427 177 7253ft 88kts
30-May-15 16:51 35.914493 -115.162349 180 7766ft 93kts
30-May-15 16:52 35.888396 -115.162758 180 8271ft 93kts
30-May-15 16:53 35.862383 -115.163193 180 8762ft 93kts
30-May-15 16:54 35.835435 -115.163597 180 9033ft 107kts
30-May-15 16:55 35.807184 -115.164052 180 9035ft 96kts
30-May-15 16:56 35.780134 -115.164526 180 9035ft 97kts
30-May-15 16:57 35.753053 -115.164968 180 9035ft 97kts
30-May-15 16:58 35.725934 -115.165419 182 9033ft 97kts
30-May-15 16:59 35.698926 -115.165876 182 9031ft 96kts
30-May-15 17:00 35.672268 -115.166337 182 9065ft 95kts
30-May-15 17:01 35.645637 -115.166773 182 9070ft 96kts
30-May-15 17:02 35.619134 -115.167228 182 9112ft 94kts
30-May-15 17:03 35.592653 -115.167660 182 9130ft 96kts
30-May-15 17:04 35.565503 -115.168079 182 9129ft 97kts
30-May-15 17:05 35.538305 -115.168524 182 9126ft 98kts
30-May-15 17:06 35.510954 -115.168972 182 9126ft 98kts
30-May-15 17:07 35.483276 -115.169538 184 9092ft 99kts
30-May-15 17:08 35.453511 -115.170793 182 9078ft 122kts
30-May-15 17:09 35.423415 -115.171307 182 9080ft 101kts
30-May-15 17:10 35.395594 -115.171769 182 9081ft 98kts
30-May-15 17:11 35.368169 -115.172223 182 9085ft 98kts
30-May-15 17:12 35.340880 -115.172673 182 9086ft 98kts
30-May-15 17:13 35.313297 -115.173124 182 9058ft 99kts
30-May-15 17:14 35.285681 -115.173579 182 9052ft 98kts
30-May-15 17:15 35.258223 -115.174033 182 9050ft 98kts
30-May-15 17:16 35.230925 -115.174484 182 9051ft 98kts
30-May-15 17:17 35.203581 -115.175107 183 9052ft 98kts
30-May-15 17:18 35.176230 -115.175640 182 9052ft 98kts
30-May-15 17:19 35.148848 -115.176093 182 9038ft 99kts
30-May-15 17:20 35.124952 -115.162131 134 9028ft 106kts
30-May-15 17:21 35.108312 -115.131791 129 9026ft 107kts
30-May-15 17:22 35.092339 -115.100825 129 9026ft 107kts
30-May-15 17:23 35.076394 -115.069831 129 9023ft 107kts
30-May-15 17:24 35.060482 -115.038911 129 9021ft 107kts
30-May-15 17:25 35.044533 -115.007956 129 9021ft 107kts
30-May-15 17:26 35.028582 -114.977022 129 9023ft 107kts
30-May-15 17:27 35.012629 -114.946113 129 9023ft 107kts
30-May-15 17:28 34.996702 -114.915282 129 9021ft 107kts
30-May-15 17:29 34.980714 -114.884356 129 9021ft 107kts
30-May-15 17:30 34.964782 -114.853570 129 9032ft 107kts
30-May-15 17:31 34.948847 -114.822808 129 9040ft 107kts
30-May-15 17:32 34.932936 -114.792112 129 9042ft 107kts
30-May-15 17:33 34.919581 -114.766376 129 9041ft 107kts
30-May-15 17:34 34.903559 -114.735518 129 9041ft 107kts
30-May-15 17:35 34.887643 -114.704897 129 9038ft 106kts
30-May-15 17:36 34.871869 -114.674582 129 9038ft 105kts
30-May-15 17:37 34.856072 -114.644246 129 9038ft 105kts
30-May-15 17:38 34.840256 -114.613894 129 9036ft 105kts
30-May-15 17:39 34.824465 -114.583627 129 9042ft 105kts
30-May-15 17:40 34.808713 -114.553458 129 9043ft 105kts
30-May-15 17:41 34.792721 -114.523443 130 9049ft 105kts
30-May-15 17:42 34.776742 -114.493344 129 9050ft 105kts
30-May-15 17:43 34.754591 -114.478761 188 9038ft 98kts
30-May-15 17:44 34.728196 -114.485978 193 9094ft 105kts
30-May-15 17:45 34.697821 -114.495514 193 9028ft 104kts
30-May-15 17:46 34.670418 -114.504134 193 9030ft 100kts
30-May-15 17:47 34.643578 -114.512567 193 9030ft 99kts
30-May-15 17:48 34.616710 -114.521002 193 9031ft 99kts
30-May-15 17:49 34.589867 -114.529445 194 9032ft 99kts
30-May-15 17:50 34.563046 -114.538058 193 9032ft 99kts
30-May-15 17:51 34.536271 -114.546454 193 9032ft 99kts
30-May-15 17:52 34.509413 -114.554861 193 9032ft 99kts
30-May-15 17:53 34.482539 -114.563268 193 9032ft 99kts
30-May-15 17:54 34.455678 -114.571665 193 9032ft 99kts
30-May-15 17:55 34.428901 -114.580030 193 9033ft 99kts
30-May-15 17:56 34.402035 -114.588418 193 9033ft 99kts
30-May-15 17:57 34.375166 -114.596801 193 9034ft 99kts
30-May-15 17:58 34.348293 -114.605180 193 9032ft 99kts
30-May-15 17:59 34.321484 -114.613534 193 9032ft 99kts
30-May-15 18:00 34.294589 -114.621909 193 9031ft 99kts
30-May-15 18:01 34.267713 -114.630274 193 9032ft 99kts
30-May-15 18:02 34.240799 -114.638649 192 9029ft 100kts
30-May-15 18:03 34.210330 -114.647973 192 9025ft 122kts
30-May-15 18:04 34.180605 -114.657277 193 9031ft 105kts
30-May-15 18:05 34.152664 -114.666004 192 9032ft 102kts
30-May-15 18:06 34.124998 -114.674602 192 9034ft 102kts
30-May-15 18:07 34.097413 -114.682693 185 9035ft 102kts
30-May-15 18:08 34.069121 -114.686695 186 9033ft 102kts
30-May-15 18:09 34.040883 -114.691089 186 9034ft 102kts
30-May-15 18:10 34.012637 -114.695492 186 9033ft 102kts
30-May-15 18:11 33.984503 -114.699879 186 9035ft 102kts
30-May-15 18:12 33.956297 -114.704277 186 9037ft 102kts
30-May-15 18:13 33.928112 -114.709070 187 9039ft 102kts
30-May-15 18:14 33.900084 -114.713734 186 9059ft 101kts
30-May-15 18:15 33.872103 -114.718099 186 9067ft 101kts
30-May-15 18:16 33.843940 -114.722478 186 9070ft 102kts
30-May-15 18:17 33.815731 -114.726861 186 9070ft 102kts
30-May-15 18:18 33.787529 -114.731240 186 9064ft 102kts
30-May-15 18:19 33.759138 -114.735645 186 9051ft 102kts
30-May-15 18:20 33.730394 -114.740103 184 9001ft 104kts
30-May-15 18:21 33.701915 -114.744520 184 9000ft 102kts
30-May-15 18:22 33.673774 -114.748883 184 9002ft 102kts
30-May-15 18:23 33.645599 -114.753246 185 9002ft 101kts
30-May-15 18:24 33.617470 -114.757607 185 9003ft 101kts
30-May-15 18:25 33.589367 -114.759920 169 9006ft 101kts
30-May-15 18:26 33.561625 -114.754152 170 9002ft 101kts
30-May-15 18:27 33.533738 -114.748722 170 9002ft 101kts
30-May-15 18:28 33.505851 -114.743314 169 9001ft 101kts
30-May-15 18:29 33.478079 -114.737932 169 9002ft 101kts
30-May-15 18:30 33.450206 -114.732533 169 9000ft 101kts
30-May-15 18:31 33.422036 -114.727071 169 8975ft 101kts
30-May-15 18:32 33.394081 -114.721671 169 8975ft 101kts
30-May-15 18:33 33.366347 -114.716315 169 8981ft 101kts
30-May-15 18:34 33.338502 -114.710935 169 8980ft 101kts
30-May-15 18:35 33.310629 -114.705554 169 8982ft 101kts
30-May-15 18:36 33.282749 -114.700176 169 8983ft 101kts
30-May-15 18:37 33.254971 -114.694821 169 8983ft 101kts
30-May-15 18:38 33.231732 -114.690359 167 8979ft 100kts
30-May-15 18:39 33.204192 -114.685062 167 8988ft 99kts
30-May-15 18:40 33.172462 -114.677652 167 8992ft 99kts
30-May-15 18:41 33.149613 -114.673420 168 8993ft 99kts
30-May-15 18:42 33.116059 -114.667208 168 8627ft 109kts
30-May-15 18:43 33.091525 -114.662690 168 8192ft 104kts
30-May-15 18:44 33.063041 -114.657435 168 7689ft 103kts
30-May-15 18:45 33.034499 -114.652171 169 7190ft 103kts
30-May-15 18:46 33.005780 -114.646877 169 6693ft 105kts
30-May-15 18:47 32.976683 -114.641516 169 6193ft 106kts
30-May-15 18:48 32.947468 -114.636328 170 5694ft 106kts
30-May-15 18:49 32.918033 -114.630951 170 5193ft 107kts
30-May-15 18:50 32.894134 -114.613804 121 4671ft 110kts
30-May-15 18:51 32.872749 -114.588144 133 4066ft 112kts
30-May-15 18:52 32.855757 -114.556986 124 3459ft 110kts
30-May-15 18:53 32.838716 -114.528392 129 3003ft 97kts
30-May-15 18:54 32.823390 -114.504446 148 2991ft 85kts
30-May-15 18:55 32.799288 -114.508528 193 2717ft 101kts
30-May-15 18:56 32.770566 -114.517135 193 2124ft 108kts
30-May-15 18:57 32.742194 -114.525197 193 1799ft 95kts
30-May-15 18:58 32.718597 -114.535798 217 1794ft 90kts
30-May-15 18:59 32.700716 -114.556096 221 1577ft 90kts
30-May-15 19:00 32.682568 -114.577047 222 1067ft 77kts
30-May-15 19:01 32.668753 -114.592821 222 540ft 65kts
30-May-15 19:02 32.659093 -114.603818 223 219ft 21kts
30-May-15 19:03 32.654434 -114.609161 223 219ft 23kts
30-May-15 19:04 32.652163 -114.610682 91 219ft 0kts
30-May-15 19:05 32.652186 -114.609134 87 219ft 13kts
30-May-15 19:06 32.652273 -114.603021 90 219ft 17kts
30-May-15 19:07 32.654249 -114.597453 64 219ft 19kts

Navigation Log

Ident Type
Flight plan parsing failed, navigation log unavailable